Главная страница
METAR-TAF:

METAR-TAF

Аэропорты :

Пальма-де-Мальорка

Пальма, Испания

широта: 39-33N, долгота: 002-44E, высота над уровнем моря: 4 м

Текущие метеонаблюдения

Эта сводка был подготовлена 21 минут назад, в 12:00 UTC
Ветер 3 Узел от северо-северо-восточный
Температура 26°C
Влажность 61%
Давление 1020 hPa
Видимость 10 км и более
Отдельные облака на высоте 2500 фута

METAR: LEPA 211200Z 03003KT 9999 SCT025 26/18 Q1020 NOSIG

Время: 14:21 (12:21 UTC)

Прогноз

Эта сводка был подготовлена 1 час и 21 минут назад, в 11:00 UTC
Прогноз действительный с 21-го 12 UTC до 22-го 12 UTC
Ветер 5 Узел от восточно-северо-восточный
Видимость 10 км и более
небольшая облачность на высоте 3000 фута
изменения
С 21-го 18 UTC до 21-го 20 UTC
Ветер 3 Узел переменных направлений
изменения
С 22-го 08 UTC до 22-го 10 UTC
Ветер 11 Узел от северо-восточный

TAF: LEPA 211100Z 2112/2212 06005KT 9999 FEW030 TX26/2112Z TN13/2206Z BECMG 2118/2120 VRB03KT BECMG 2208/2210 04011KT

Метеонаблюдения и прогнозы для более 4000 аэропортов (сводки METAR и TAF).

Имеющиеся станции представлены на карте желтыми и красными точками.

Чтобы увидеть название станции, наведите на нее мышь.

Затем щелкните, чтобы увидеть метеонаблюдения и метеопрогнозы.

Управление картой: чтобы увеличить масштаб, щелкните зеленые кнопки с черным крестиком; чтобы уменьшить масштаб, щелкните зеленую кнопку с тире; для просмотра соседних карт щелкайте зеленые стрелки.


METAR-TAF: